sensor_id;sensor_type;location;lat;lon;timestamp;pressure;altitude;pressure_sealevel;temperature;humidity
56074;BME280;41950;55.840;37.442;2024-01-16T00:01:31;97130.34;;;-2.12;100.00
56074;BME280;41950;55.840;37.442;2024-01-16T00:03:57;97149.69;;;-1.99;100.00
56074;BME280;41950;55.840;37.442;2024-01-16T00:06:22;97175.84;;;-1.82;100.00
56074;BME280;41950;55.840;37.442;2024-01-16T00:08:48;97157.28;;;-1.93;100.00
56074;BME280;41950;55.840;37.442;2024-01-16T00:11:14;97159.81;;;-1.93;100.00
56074;BME280;41950;55.840;37.442;2024-01-16T00:13:40;97065.44;;;-2.52;100.00
56074;BME280;41950;55.840;37.442;2024-01-16T00:16:05;97091.53;;;-2.33;100.00
56074;BME280;41950;55.840;37.442;2024-01-16T00:18:31;97207.09;;;-1.71;100.00
56074;BME280;41950;55.840;37.442;2024-01-16T00:20:57;97142.88;;;-1.91;100.00
56074;BME280;41950;55.840;37.442;2024-01-16T00:23:22;97165.69;;;-1.83;100.00
56074;BME280;41950;55.840;37.442;2024-01-16T00:25:48;97128.63;;;-2.09;100.00
56074;BME280;41950;55.840;37.442;2024-01-16T00:28:14;97198.59;;;-1.68;100.00
56074;BME280;41950;55.840;37.442;2024-01-16T00:33:43;96998.84;;;-2.84;100.00
56074;BME280;41950;55.840;37.442;2024-01-16T00:36:59;97013.16;;;-2.72;100.00
56074;BME280;41950;55.840;37.442;2024-01-16T00:43:22;97070.44;;;-2.41;100.00
56074;BME280;41950;55.840;37.442;2024-01-16T00:49:52;96855.75;;;-3.72;100.00
56074;BME280;41950;55.840;37.442;2024-01-16T00:52:51;97190.91;;;-1.61;100.00
56074;BME280;41950;55.840;37.442;2024-01-16T00:59:58;96837.28;;;-3.91;100.00
56074;BME280;41950;55.840;37.442;2024-01-16T01:03:28;96901.94;;;-3.33;100.00
56074;BME280;41950;55.840;37.442;2024-01-16T01:06:27;97066.25;;;-2.50;100.00
56074;BME280;41950;55.840;37.442;2024-01-16T01:08:55;96900.28;;;-3.37;100.00
56074;BME280;41950;55.840;37.442;2024-01-16T01:11:34;97196.84;;;-1.65;100.00
56074;BME280;41950;55.840;37.442;2024-01-16T01:14:17;96829.59;;;-3.77;100.00
56074;BME280;41950;55.840;37.442;2024-01-16T01:16:49;96854.00;;;-3.67;100.00
56074;BME280;41950;55.840;37.442;2024-01-16T01:19:53;97000.47;;;-2.77;100.00
56074;BME280;41950;55.840;37.442;2024-01-16T01:22:24;96997.94;;;-2.78;100.00
56074;BME280;41950;55.840;37.442;2024-01-16T01:24:58;96862.38;;;-3.53;100.00
56074;BME280;41950;55.840;37.442;2024-01-16T01:27:26;96876.88;;;-3.73;100.00
56074;BME280;41950;55.840;37.442;2024-01-16T01:29:52;97035.78;;;-2.48;100.00
56074;BME280;41950;55.840;37.442;2024-01-16T01:32:18;96986.97;;;-2.82;100.00
56074;BME280;41950;55.840;37.442;2024-01-16T01:34:43;96973.47;;;-2.86;100.00
56074;BME280;41950;55.840;37.442;2024-01-16T01:37:09;96937.22;;;-3.03;100.00
56074;BME280;41950;55.840;37.442;2024-01-16T01:39:35;96881.75;;;-3.44;100.00
56074;BME280;41950;55.840;37.442;2024-01-16T01:42:01;97029.84;;;-2.47;100.00
56074;BME280;41950;55.840;37.442;2024-01-16T01:44:26;97147.03;;;-1.82;100.00
56074;BME280;41950;55.840;37.442;2024-01-16T01:46:54;97030.72;;;-2.50;100.00
56074;BME280;41950;55.840;37.442;2024-01-16T01:49:20;97150.38;;;-1.79;100.00
56074;BME280;41950;55.840;37.442;2024-01-16T01:51:46;97172.28;;;-1.66;100.00
56074;BME280;41950;55.840;37.442;2024-01-16T01:54:13;97161.31;;;-1.71;100.00
56074;BME280;41950;55.840;37.442;2024-01-16T01:56:39;97162.06;;;-1.58;100.00
56074;BME280;41950;55.840;37.442;2024-01-16T01:59:08;97168.00;;;-1.58;100.00
56074;BME280;41950;55.840;37.442;2024-01-16T02:01:34;97063.53;;;-2.27;100.00
56074;BME280;41950;55.840;37.442;2024-01-16T02:04:01;97168.88;;;-1.65;100.00
56074;BME280;41950;55.840;37.442;2024-01-16T02:06:31;97130.16;;;-1.93;100.00
56074;BME280;41950;55.840;37.442;2024-01-16T02:08:57;97071.16;;;-2.25;100.00
56074;BME280;41950;55.840;37.442;2024-01-16T02:11:23;97152.03;;;-1.75;100.00
56074;BME280;41950;55.840;37.442;2024-01-16T02:13:48;97179.91;;;-1.61;100.00
56074;BME280;41950;55.840;37.442;2024-01-16T02:16:21;97098.09;;;-2.06;100.00
56074;BME280;41950;55.840;37.442;2024-01-16T02:18:47;97141.09;;;-1.83;100.00
56074;BME280;41950;55.840;37.442;2024-01-16T02:21:18;97023.19;;;-2.60;100.00
56074;BME280;41950;55.840;37.442;2024-01-16T02:23:44;97076.19;;;-2.22;100.00
56074;BME280;41950;55.840;37.442;2024-01-16T02:26:10;97031.53;;;-2.47;100.00
56074;BME280;41950;55.840;37.442;2024-01-16T02:28:36;97041.72;;;-2.46;100.00
56074;BME280;41950;55.840;37.442;2024-01-16T02:31:01;97122.66;;;-2.06;99.89
56074;BME280;41950;55.840;37.442;2024-01-16T02:33:27;97127.66;;;-1.97;100.00
56074;BME280;41950;55.840;37.442;2024-01-16T02:35:52;97181.63;;;-1.63;100.00
56074;BME280;41950;55.840;37.442;2024-01-16T02:38:18;97156.31;;;-1.80;100.00
56074;BME280;41950;55.840;37.442;2024-01-16T02:40:44;97038.34;;;-2.51;100.00
56074;BME280;41950;55.840;37.442;2024-01-16T02:43:10;97183.25;;;-1.58;100.00
56074;BME280;41950;55.840;37.442;2024-01-16T02:45:35;97130.16;;;-1.93;100.00
56074;BME280;41950;55.840;37.442;2024-01-16T02:48:01;97169.81;;;-1.72;100.00
56074;BME280;41950;55.840;37.442;2024-01-16T02:50:28;97138.66;;;-1.95;100.00
56074;BME280;41950;55.840;37.442;2024-01-16T02:52:54;97100.75;;;-2.16;100.00
56074;BME280;41950;55.840;37.442;2024-01-16T02:55:20;97040.94;;;-2.56;99.75
56074;BME280;41950;55.840;37.442;2024-01-16T02:57:45;97116.72;;;-2.04;100.00
56074;BME280;41950;55.840;37.442;2024-01-16T03:00:11;97102.38;;;-2.12;100.00
56074;BME280;41950;55.840;37.442;2024-01-16T03:02:37;97040.03;;;-2.50;100.00
56074;BME280;41950;55.840;37.442;2024-01-16T03:05:03;97158.81;;;-1.75;100.00
56074;BME280;41950;55.840;37.442;2024-01-16T03:07:30;96986.09;;;-2.80;100.00
56074;BME280;41950;55.840;37.442;2024-01-16T03:09:56;96978.53;;;-2.86;99.08
56074;BME280;41950;55.840;37.442;2024-01-16T03:12:22;97042.69;;;-2.62;100.00
56074;BME280;41950;55.840;37.442;2024-01-16T03:14:47;97148.78;;;-1.89;98.75
56074;BME280;41950;55.840;37.442;2024-01-16T03:17:13;97198.56;;;-1.64;99.17
56074;BME280;41950;55.840;37.442;2024-01-16T03:19:39;97094.91;;;-2.29;98.80
56074;BME280;41950;55.840;37.442;2024-01-16T03:22:07;97212.97;;;-1.66;100.00
56074;BME280;41950;55.840;37.442;2024-01-16T03:24:33;97148.81;;;-1.95;100.00
56074;BME280;41950;55.840;37.442;2024-01-16T03:26:58;97121.81;;;-2.07;100.00
56074;BME280;41950;55.840;37.442;2024-01-16T03:29:24;97148.81;;;-1.95;100.00
56074;BME280;41950;55.840;37.442;2024-01-16T03:31:50;97132.78;;;-2.02;99.46
56074;BME280;41950;55.840;37.442;2024-01-16T03:34:16;97146.31;;;-1.98;100.00
56074;BME280;41950;55.840;37.442;2024-01-16T03:36:41;97131.91;;;-1.99;100.00
56074;BME280;41950;55.840;37.442;2024-01-16T03:39:07;97209.56;;;-1.62;100.00
56074;BME280;41950;55.840;37.442;2024-01-16T03:41:34;97138.63;;;-1.91;100.00
56074;BME280;41950;55.840;37.442;2024-01-16T03:43:59;97122.66;;;-2.06;100.00
56074;BME280;41950;55.840;37.442;2024-01-16T03:46:25;96997.13;;;-2.81;100.00
56074;BME280;41950;55.840;37.442;2024-01-16T03:48:51;96983.72;;;-2.96;100.00
56074;BME280;41950;55.840;37.442;2024-01-16T03:51:17;96972.72;;;-2.97;100.00
56074;BME280;41950;55.840;37.442;2024-01-16T03:53:45;97133.69;;;-2.07;100.00
56074;BME280;41950;55.840;37.442;2024-01-16T03:56:11;97023.25;;;-2.65;100.00
56074;BME280;41950;55.840;37.442;2024-01-16T03:58:37;97216.34;;;-1.62;100.00
56074;BME280;41950;55.840;37.442;2024-01-16T04:01:03;96992.97;;;-2.89;100.00
56074;BME280;41950;55.840;37.442;2024-01-16T04:03:29;96997.22;;;-2.94;100.00
56074;BME280;41950;55.840;37.442;2024-01-16T04:05:55;97085.69;;;-2.41;100.00
56074;BME280;41950;55.840;37.442;2024-01-16T04:08:20;97115.97;;;-2.20;100.00
56074;BME280;41950;55.840;37.442;2024-01-16T04:10:46;97196.03;;;-1.67;100.00
56074;BME280;41950;55.840;37.442;2024-01-16T04:13:11;97153.00;;;-1.87;100.00
56074;BME280;41950;55.840;37.442;2024-01-16T04:15:38;97086.38;;;-2.24;100.00
56074;BME280;41950;55.840;37.442;2024-01-16T04:18:04;97134.44;;;-1.99;100.00
56074;BME280;41950;55.840;37.442;2024-01-16T04:20:30;97134.59;;;-2.14;100.00
56074;BME280;41950;55.840;37.442;2024-01-16T04:22:56;97196.88;;;-1.68;100.00
56074;BME280;41950;55.840;37.442;2024-01-16T04:25:23;97184.38;;;-1.94;100.00
56074;BME280;41950;55.840;37.442;2024-01-16T04:27:48;97120.19;;;-2.12;100.00
56074;BME280;41950;55.840;37.442;2024-01-16T04:30:14;97198.59;;;-1.68;100.00
56074;BME280;41950;55.840;37.442;2024-01-16T04:32:40;97151.38;;;-1.98;100.00
56074;BME280;41950;55.840;37.442;2024-01-16T04:35:06;97149.72;;;-2.01;100.00
56074;BME280;41950;55.840;37.442;2024-01-16T04:37:32;97183.47;;;-1.83;100.00
56074;BME280;41950;55.840;37.442;2024-01-16T04:39:58;97211.31;;;-1.71;100.00
56074;BME280;41950;55.840;37.442;2024-01-16T04:42:25;97109.31;;;-2.33;97.35
56074;BME280;41950;55.840;37.442;2024-01-16T04:44:50;97148.94;;;-2.07;99.17
56074;BME280;41950;55.840;37.442;2024-01-16T04:47:16;97225.78;;;-1.75;100.00
56074;BME280;41950;55.840;37.442;2024-01-16T04:49:42;97214.75;;;-1.74;99.76
56074;BME280;41950;55.840;37.442;2024-01-16T04:52:08;97111.97;;;-2.48;97.43
56074;BME280;41950;55.840;37.442;2024-01-16T04:54:34;97114.50;;;-2.45;99.46
56074;BME280;41950;55.840;37.442;2024-01-16T04:57:00;97148.22;;;-2.26;100.00
56074;BME280;41950;55.840;37.442;2024-01-16T04:59:25;97171.88;;;-2.16;100.00
56074;BME280;41950;55.840;37.442;2024-01-16T05:01:51;97199.66;;;-1.95;100.00
56074;BME280;41950;55.840;37.442;2024-01-16T05:04:17;97102.72;;;-2.55;100.00
56074;BME280;41950;55.840;37.442;2024-01-16T05:06:43;97161.75;;;-2.23;99.93
56074;BME280;41950;55.840;37.442;2024-01-16T05:09:08;97128.06;;;-2.51;100.00
56074;BME280;41950;55.840;37.442;2024-01-16T05:11:37;97005.78;;;-3.11;100.00
56074;BME280;41950;55.840;37.442;2024-01-16T05:14:03;97009.13;;;-3.05;99.72
56074;BME280;41950;55.840;37.442;2024-01-16T05:16:28;97157.50;;;-2.24;99.35
56074;BME280;41950;55.840;37.442;2024-01-16T05:18:54;97107.75;;;-2.52;98.41
56074;BME280;41950;55.840;37.442;2024-01-16T05:21:20;97094.34;;;-2.66;98.82
56074;BME280;41950;55.840;37.442;2024-01-16T05:23:46;97228.41;;;-1.87;96.39
56074;BME280;41950;55.840;37.442;2024-01-16T05:26:12;97230.97;;;-1.87;97.52
56074;BME280;41950;55.840;37.442;2024-01-16T05:28:38;97070.75;;;-2.85;96.83
56074;BME280;41950;55.840;37.442;2024-01-16T05:31:04;97226.75;;;-1.91;97.84
56074;BME280;41950;55.840;37.442;2024-01-16T05:33:30;97195.56;;;-2.11;97.70
56074;BME280;41950;55.840;37.442;2024-01-16T05:35:58;97164.28;;;-2.23;98.44
56074;BME280;41950;55.840;37.442;2024-01-16T05:38:24;97069.84;;;-2.76;98.61
56074;BME280;41950;55.840;37.442;2024-01-16T05:40:50;97101.03;;;-2.56;98.46
56074;BME280;41950;55.840;37.442;2024-01-16T05:43:15;97222.41;;;-1.77;98.93
56074;BME280;41950;55.840;37.442;2024-01-16T05:45:41;97007.47;;;-3.09;98.79
56074;BME280;41950;55.840;37.442;2024-01-16T05:48:07;97074.03;;;-2.66;98.13
56074;BME280;41950;55.840;37.442;2024-01-16T05:50:37;97216.50;;;-1.82;96.42
56074;BME280;41950;55.840;37.442;2024-01-16T05:53:03;97164.19;;;-2.09;97.35
56074;BME280;41950;55.840;37.442;2024-01-16T05:55:29;97049.59;;;-2.83;98.04
56074;BME280;41950;55.840;37.442;2024-01-16T05:57:58;97059.69;;;-2.76;96.90
56074;BME280;41950;55.840;37.442;2024-01-16T06:00:26;97007.47;;;-3.09;98.36
56074;BME280;41950;55.840;37.442;2024-01-16T06:02:52;97027.69;;;-2.96;98.80
56074;BME280;41950;55.840;37.442;2024-01-16T06:05:18;97210.53;;;-1.78;99.32
56074;BME280;41950;55.840;37.442;2024-01-16T06:07:43;97101.00;;;-2.53;97.44
56074;BME280;41950;55.840;37.442;2024-01-16T06:10:12;97092.66;;;-2.69;96.88
56074;BME280;41950;55.840;37.442;2024-01-16T06:12:39;97221.69;;;-1.97;97.56
56074;BME280;41950;55.840;37.442;2024-01-16T06:15:05;97154.22;;;-2.35;98.30
56074;BME280;41950;55.840;37.442;2024-01-16T06:17:31;97126.38;;;-2.50;98.16
56074;BME280;41950;55.840;37.442;2024-01-16T06:19:57;97227.59;;;-1.95;98.73
56074;BME280;41950;55.840;37.442;2024-01-16T06:22:26;97251.31;;;-1.90;98.38
56074;BME280;41950;55.840;37.442;2024-01-16T06:24:51;97234.44;;;-2.00;98.56
56074;BME280;41950;55.840;37.442;2024-01-16T06:27:17;97230.19;;;-1.98;98.40
56074;BME280;41950;55.840;37.442;2024-01-16T06:29:50;97231.84;;;-1.94;97.95
56074;BME280;41950;55.840;37.442;2024-01-16T06:32:16;97248.72;;;-1.84;97.75
56074;BME280;41950;55.840;37.442;2024-01-16T06:34:44;97260.59;;;-1.83;98.03
56074;BME280;41950;55.840;37.442;2024-01-16T06:37:10;97088.50;;;-2.82;97.87
56074;BME280;41950;55.840;37.442;2024-01-16T06:39:36;97094.41;;;-2.80;98.01
56074;BME280;41950;55.840;37.442;2024-01-16T06:42:03;97193.06;;;-2.22;98.19
56074;BME280;41950;55.840;37.442;2024-01-16T06:44:31;97126.47;;;-2.62;96.97
56074;BME280;41950;55.840;37.442;2024-01-16T06:46:57;97211.66;;;-2.12;93.68
56074;BME280;41950;55.840;37.442;2024-01-16T06:49:23;97124.94;;;-2.89;95.40
56074;BME280;41950;55.840;37.442;2024-01-16T06:51:48;97106.28;;;-2.85;96.53
56074;BME280;41950;55.840;37.442;2024-01-16T06:54:14;97228.59;;;-2.11;97.57
56074;BME280;41950;55.840;37.442;2024-01-16T06:56:40;97178.78;;;-2.38;95.12
56074;BME280;41950;55.840;37.442;2024-01-16T06:59:06;97027.03;;;-3.31;93.66
56074;BME280;41950;55.840;37.442;2024-01-16T07:01:31;97095.38;;;-2.96;93.73
56074;BME280;41950;55.840;37.442;2024-01-16T07:03:57;97059.94;;;-3.15;93.83
56074;BME280;41950;55.840;37.442;2024-01-16T07:06:24;97138.38;;;-2.70;93.01
56074;BME280;41950;55.840;37.442;2024-01-16T07:08:53;97195.72;;;-2.36;93.89
56074;BME280;41950;55.840;37.442;2024-01-16T07:11:19;97051.50;;;-3.20;93.83
56074;BME280;41950;55.840;37.442;2024-01-16T07:13:45;97216.78;;;-2.23;95.71
56074;BME280;41950;55.840;37.442;2024-01-16T07:16:11;97253.09;;;-2.03;95.14
56074;BME280;41950;55.840;37.442;2024-01-16T07:18:38;97110.53;;;-2.89;95.57
56074;BME280;41950;55.840;37.442;2024-01-16T07:21:04;97220.16;;;-2.18;96.37
56074;BME280;41950;55.840;37.442;2024-01-16T07:23:30;97089.41;;;-2.92;96.74
56074;BME280;41950;55.840;37.442;2024-01-16T07:25:56;97102.09;;;-2.91;96.64
56074;BME280;41950;55.840;37.442;2024-01-16T07:28:22;97178.78;;;-2.38;96.24
56074;BME280;41950;55.840;37.442;2024-01-16T07:30:48;97266.56;;;-1.87;97.01
56074;BME280;41950;55.840;37.442;2024-01-16T07:33:14;97276.66;;;-1.81;97.02
56074;BME280;41950;55.840;37.442;2024-01-16T07:35:39;97193.88;;;-2.12;95.80
56074;BME280;41950;55.840;37.442;2024-01-16T07:38:07;97230.97;;;-1.93;96.35
56074;BME280;41950;55.840;37.442;2024-01-16T07:40:32;97256.28;;;-1.75;96.11
56074;BME280;41950;55.840;37.442;2024-01-16T07:42:58;97252.91;;;-1.75;95.78
56074;BME280;41950;55.840;37.442;2024-01-16T07:45:24;97236.91;;;-1.93;92.38
56074;BME280;41950;55.840;37.442;2024-01-16T07:47:50;97253.03;;;-1.91;94.02
56074;BME280;41950;55.840;37.442;2024-01-16T07:50:15;97253.84;;;-1.87;94.99
56074;BME280;41950;55.840;37.442;2024-01-16T07:52:41;97219.25;;;-2.11;95.50
56074;BME280;41950;55.840;37.442;2024-01-16T07:55:07;97249.56;;;-1.82;95.60
56074;BME280;41950;55.840;37.442;2024-01-16T07:57:32;97238.56;;;-1.82;95.42
56074;BME280;41950;55.840;37.442;2024-01-16T07:59:58;97230.94;;;-1.84;95.03
56074;BME280;41950;55.840;37.442;2024-01-16T08:02:31;97236.91;;;-1.90;94.66
56074;BME280;41950;55.840;37.442;2024-01-16T08:04:57;97163.47;;;-2.29;93.00
56074;BME280;41950;55.840;37.442;2024-01-16T08:07:23;97087.59;;;-2.69;93.86
56074;BME280;41950;55.840;37.442;2024-01-16T08:09:49;97192.97;;;-2.07;94.18
56074;BME280;41950;55.840;37.442;2024-01-16T08:12:14;97195.53;;;-2.10;93.64
56074;BME280;41950;55.840;37.442;2024-01-16T08:14:40;97223.28;;;-1.82;94.28
56074;BME280;41950;55.840;37.442;2024-01-16T08:17:06;97139.69;;;-2.21;93.78
56074;BME280;41950;55.840;37.442;2024-01-16T08:19:32;97186.06;;;-1.90;92.45
56074;BME280;41950;55.840;37.442;2024-01-16T08:21:58;97202.00;;;-1.71;92.92
56074;BME280;41950;55.840;37.442;2024-01-16T08:24:23;97098.28;;;-2.29;91.76
56074;BME280;41950;55.840;37.442;2024-01-16T08:26:49;97100.03;;;-2.34;90.53
56074;BME280;41950;55.840;37.442;2024-01-16T08:29:15;97045.22;;;-2.62;89.58
56074;BME280;41950;55.840;37.442;2024-01-16T08:31:41;97150.50;;;-1.90;91.10
56074;BME280;41950;55.840;37.442;2024-01-16T08:34:06;97137.84;;;-2.00;91.32
56074;BME280;41950;55.840;37.442;2024-01-16T08:36:32;97153.06;;;-1.97;91.76
56074;BME280;41950;55.840;37.442;2024-01-16T08:38:58;97157.25;;;-1.87;89.65
56074;BME280;41950;55.840;37.442;2024-01-16T08:41:23;97155.50;;;-1.83;87.91
56074;BME280;41950;55.840;37.442;2024-01-16T08:43:49;97216.13;;;-1.41;88.89
56074;BME280;41950;55.840;37.442;2024-01-16T08:46:17;97209.41;;;-1.46;85.93
56074;BME280;41950;55.840;37.442;2024-01-16T08:48:45;97163.97;;;-1.83;88.39
56074;BME280;41950;55.840;37.442;2024-01-16T08:51:11;97212.84;;;-1.49;88.96
56074;BME280;41950;55.840;37.442;2024-01-16T08:53:40;97172.28;;;-1.67;88.99
56074;BME280;41950;55.840;37.442;2024-01-16T08:56:06;97217.78;;;-1.32;88.68
56074;BME280;41950;55.840;37.442;2024-01-16T08:58:33;97159.63;;;-1.72;88.88
56074;BME280;41950;55.840;37.442;2024-01-16T09:01:04;97175.69;;;-1.64;88.99
56074;BME280;41950;55.840;37.442;2024-01-16T09:03:31;97210.25;;;-1.46;89.05
56074;BME280;41950;55.840;37.442;2024-01-16T09:05:57;97064.41;;;-2.29;87.26
56074;BME280;41950;55.840;37.442;2024-01-16T09:08:23;97044.88;;;-2.24;87.99
56074;BME280;41950;55.840;37.442;2024-01-16T09:10:49;97177.28;;;-1.53;88.12
56074;BME280;41950;55.840;37.442;2024-01-16T09:13:16;97187.28;;;-1.40;87.26
56074;BME280;41950;55.840;37.442;2024-01-16T09:15:41;96933.72;;;-2.87;87.37
56074;BME280;41950;55.840;37.442;2024-01-16T09:18:07;97148.50;;;-1.59;87.78
56074;BME280;41950;55.840;37.442;2024-01-16T09:20:32;97118.19;;;-1.80;87.29
56074;BME280;41950;55.840;37.442;2024-01-16T09:22:58;97095.41;;;-1.89;87.74
56074;BME280;41950;55.840;37.442;2024-01-16T09:25:24;97124.03;;;-1.72;86.47
56074;BME280;41950;55.840;37.442;2024-01-16T09:27:52;97033.00;;;-2.17;86.02
56074;BME280;41950;55.840;37.442;2024-01-16T09:30:18;97060.00;;;-2.09;86.98
56074;BME280;41950;55.840;37.442;2024-01-16T09:32:44;97153.38;;;-1.40;87.00
56074;BME280;41950;55.840;37.442;2024-01-16T09:35:10;97195.53;;;-1.16;85.56
56074;BME280;41950;55.840;37.442;2024-01-16T09:37:36;97014.41;;;-2.26;86.39
56074;BME280;41950;55.840;37.442;2024-01-16T09:40:02;97134.81;;;-1.47;86.52
56074;BME280;41950;55.840;37.442;2024-01-16T09:42:30;97144.03;;;-1.38;87.05
56074;BME280;41950;55.840;37.442;2024-01-16T09:44:56;96900.66;;;-2.79;85.55
56074;BME280;41950;55.840;37.442;2024-01-16T09:47:24;96794.78;;;-3.54;85.80
56074;BME280;41950;55.840;37.442;2024-01-16T09:49:50;97123.97;;;-1.64;86.10
56074;BME280;41950;55.840;37.442;2024-01-16T09:52:18;96936.97;;;-2.69;85.61
56074;BME280;41950;55.840;37.442;2024-01-16T09:54:43;96924.38;;;-2.82;86.23
56074;BME280;41950;55.840;37.442;2024-01-16T09:57:12;97059.97;;;-2.04;85.31
56074;BME280;41950;55.840;37.442;2024-01-16T09:59:39;97206.66;;;-1.23;84.73
56074;BME280;41950;55.840;37.442;2024-01-16T10:02:07;97147.66;;;-1.58;85.62
56074;BME280;41950;55.840;37.442;2024-01-16T10:04:34;97198.25;;;-1.30;86.39
56074;BME280;41950;55.840;37.442;2024-01-16T10:07:01;97157.72;;;-1.48;83.04
56074;BME280;41950;55.840;37.442;2024-01-16T10:09:27;97152.59;;;-1.47;85.13
56074;BME280;41950;55.840;37.442;2024-01-16T10:11:54;96952.06;;;-2.57;84.62
56074;BME280;41950;55.840;37.442;2024-01-16T10:14:20;96997.44;;;-2.21;82.39
56074;BME280;41950;55.840;37.442;2024-01-16T10:17:00;96958.81;;;-2.53;83.88
56074;BME280;41950;55.840;37.442;2024-01-16T10:19:35;96899.78;;;-2.73;83.28
56074;BME280;41950;55.840;37.442;2024-01-16T10:22:12;96782.13;;;-3.57;84.25
56074;BME280;41950;55.840;37.442;2024-01-16T10:24:38;97181.00;;;-1.04;84.54
56074;BME280;41950;55.840;37.442;2024-01-16T10:27:04;96820.50;;;-3.01;84.23
56074;BME280;41950;55.840;37.442;2024-01-16T10:29:29;97158.09;;;-1.04;82.45
56074;BME280;41950;55.840;37.442;2024-01-16T10:31:58;97016.59;;;-1.88;83.37
56074;BME280;41950;55.840;37.442;2024-01-16T10:34:24;96894.44;;;-2.46;82.55
56074;BME280;41950;55.840;37.442;2024-01-16T10:36:58;97061.13;;;-1.54;84.14
56074;BME280;41950;55.840;37.442;2024-01-16T10:39:25;96966.75;;;-2.02;83.91
56074;BME280;41950;55.840;37.442;2024-01-16T10:41:55;97160.44;;;-0.88;84.55
56074;BME280;41950;55.840;37.442;2024-01-16T10:44:21;97098.22;;;-1.38;80.55
56074;BME280;41950;55.840;37.442;2024-01-16T10:46:47;96926.53;;;-2.42;84.04
56074;BME280;41950;55.840;37.442;2024-01-16T10:49:14;97077.97;;;-1.46;83.85
56074;BME280;41950;55.840;37.442;2024-01-16T10:51:42;96995.41;;;-1.87;84.81
56074;BME280;41950;55.840;37.442;2024-01-16T10:54:13;96816.16;;;-2.89;84.83
56074;BME280;41950;55.840;37.442;2024-01-16T10:56:45;96876.81;;;-2.63;83.91
56074;BME280;41950;55.840;37.442;2024-01-16T10:59:34;96783.47;;;-3.16;84.24
56074;BME280;41950;55.840;37.442;2024-01-16T11:02:04;97129.28;;;-1.07;85.05
56074;BME280;41950;55.840;37.442;2024-01-16T11:04:36;96966.72;;;-1.99;84.90
56074;BME280;41950;55.840;37.442;2024-01-16T11:07:04;96880.94;;;-2.54;84.68
56074;BME280;41950;55.840;37.442;2024-01-16T11:09:31;96928.88;;;-2.24;84.80
56074;BME280;41950;55.840;37.442;2024-01-16T11:11:57;97066.91;;;-1.42;84.94
56074;BME280;41950;55.840;37.442;2024-01-16T11:14:25;97120.00;;;-1.14;84.97
56074;BME280;41950;55.840;37.442;2024-01-16T11:16:51;97035.88;;;-1.70;85.50
56074;BME280;41950;55.840;37.442;2024-01-16T11:19:19;97136.09;;;-1.12;86.42
56074;BME280;41950;55.840;37.442;2024-01-16T11:21:45;96922.19;;;-2.32;85.51
56074;BME280;41950;55.840;37.442;2024-01-16T11:24:12;96983.66;;;-1.98;85.91
56074;BME280;41950;55.840;37.442;2024-01-16T11:26:41;97042.56;;;-1.60;85.94
56074;BME280;41950;55.840;37.442;2024-01-16T11:29:39;97117.59;;;-1.23;85.80
56074;BME280;41950;55.840;37.442;2024-01-16T11:32:05;97086.53;;;-1.51;85.76
56074;BME280;41950;55.840;37.442;2024-01-16T11:34:58;97051.91;;;-1.63;85.99
56074;BME280;41950;55.840;37.442;2024-01-16T11:37:28;97045.13;;;-1.66;87.27
56074;BME280;41950;55.840;37.442;2024-01-16T11:42:54;97104.16;;;-1.35;86.79
56074;BME280;41950;55.840;37.442;2024-01-16T11:48:08;96973.78;;;-2.26;87.14
56074;BME280;41950;55.840;37.442;2024-01-16T11:50:37;96956.88;;;-2.30;86.07
56074;BME280;41950;55.840;37.442;2024-01-16T11:53:03;96776.13;;;-3.47;87.66
56074;BME280;41950;55.840;37.442;2024-01-16T11:55:53;96931.75;;;-2.56;86.81
56074;BME280;41950;55.840;37.442;2024-01-16T12:01:17;96716.44;;;-3.81;87.09
56074;BME280;41950;55.840;37.442;2024-01-16T12:04:06;96929.13;;;-2.45;87.43
56074;BME280;41950;55.840;37.442;2024-01-16T12:06:35;96978.81;;;-2.18;87.55
56074;BME280;41950;55.840;37.442;2024-01-16T12:09:21;97075.50;;;-1.52;86.58
56074;BME280;41950;55.840;37.442;2024-01-16T12:12:01;97039.44;;;-1.84;85.78
56074;BME280;41950;55.840;37.442;2024-01-16T12:14:28;96901.47;;;-2.72;86.84
56074;BME280;41950;55.840;37.442;2024-01-16T12:17:13;97025.09;;;-1.93;86.47
56074;BME280;41950;55.840;37.442;2024-01-16T12:19:39;96877.88;;;-2.85;87.31
56074;BME280;41950;55.840;37.442;2024-01-16T12:22:13;97027.69;;;-1.96;86.35
56074;BME280;41950;55.840;37.442;2024-01-16T12:24:39;96954.50;;;-2.43;86.76
56074;BME280;41950;55.840;37.442;2024-01-16T12:27:05;96968.91;;;-2.47;87.16
56074;BME280;41950;55.840;37.442;2024-01-16T12:29:32;97056.38;;;-1.85;87.30
56074;BME280;41950;55.840;37.442;2024-01-16T12:32:08;96864.50;;;-3.01;87.72
56074;BME280;41950;55.840;37.442;2024-01-16T12:34:46;96805.66;;;-3.43;87.52
56074;BME280;41950;55.840;37.442;2024-01-16T12:37:13;96942.00;;;-2.66;87.79
56074;BME280;41950;55.840;37.442;2024-01-16T12:39:42;96870.31;;;-2.90;88.07
56074;BME280;41950;55.840;37.442;2024-01-16T12:42:10;96989.88;;;-2.27;88.68
56074;BME280;41950;55.840;37.442;2024-01-16T12:44:37;96829.97;;;-3.19;88.09
56074;BME280;41950;55.840;37.442;2024-01-16T12:47:03;97011.69;;;-2.06;88.20
56074;BME280;41950;55.840;37.442;2024-01-16T12:49:29;97090.09;;;-1.68;89.09
56074;BME280;41950;55.840;37.442;2024-01-16T12:52:21;97061.41;;;-1.79;88.64
56074;BME280;41950;55.840;37.442;2024-01-16T12:54:48;97063.03;;;-1.75;88.61
56074;BME280;41950;55.840;37.442;2024-01-16T12:57:18;96935.94;;;-2.52;89.09
56074;BME280;41950;55.840;37.442;2024-01-16T12:59:46;96913.19;;;-2.62;89.28
56074;BME280;41950;55.840;37.442;2024-01-16T13:02:20;96921.66;;;-2.62;88.49
56074;BME280;41950;55.840;37.442;2024-01-16T13:04:47;96940.22;;;-2.58;89.35
56074;BME280;41950;55.840;37.442;2024-01-16T13:07:16;96965.50;;;-2.43;89.18
56074;BME280;41950;55.840;37.442;2024-01-16T13:09:44;96964.66;;;-2.43;88.33
56074;BME280;41950;55.840;37.442;2024-01-16T13:12:09;97059.69;;;-1.78;87.78
56074;BME280;41950;55.840;37.442;2024-01-16T13:14:44;97058.97;;;-1.93;87.98